Flight Track Log - Related Links

Times and Time Zones

All times are in EDT time to prevent confusion due to time zone crossing. See the AKX1696 flight status page for this flight to view local times or setup timezone preferences in your user account.

Time Position Orientation Groundspeed Altitude Reporting Facility
EDT Latitude Longitude Course Direction KTS MPH feet Rate Location/Type
Fri 03:42:00 AM 37.1124 140.1781 240° Southwest  Level Estimated
Fri 03:43:00 AM 37.0740 140.0941 240° Southwest  Level Estimated
Fri 03:44:00 AM 37.0354 140.0102 240° Southwest  Level Estimated
Fri 03:45:00 AM 36.9968 139.9263 240° Southwest  Level Estimated
Fri 03:46:00 AM 36.9582 139.8426 240° Southwest  Level Estimated
Fri 03:47:00 AM 36.9195 139.7589 240° Southwest  Level Estimated
Fri 03:48:00 AM 36.8808 139.6753 240° Southwest  Level Estimated
Fri 03:49:00 AM 36.8420 139.5918 240° Southwest  Level Estimated
Fri 03:50:00 AM 36.8031 139.5084 240° Southwest  Level Estimated
Fri 03:51:00 AM 36.7642 139.4251 240° Southwest  Level Estimated
Fri 03:52:00 AM 36.7252 139.3418 240° Southwest  Level Estimated
Fri 03:53:00 AM 36.6861 139.2586 240° Southwest  Level Estimated
Fri 03:54:00 AM 36.6470 139.1756 240° Southwest  Level Estimated
Fri 03:55:00 AM 36.6079 139.0926 240° Southwest  Level Estimated
Fri 03:56:00 AM 36.5687 139.0096 240° Southwest  Level Estimated
Fri 03:57:00 AM 36.5294 138.9268 239° Southwest  Level Estimated
Fri 03:58:00 AM 36.4901 138.8441 239° Southwest  Level Estimated
Fri 03:59:00 AM 36.4507 138.7614 239° Southwest  Level Estimated
Fri 04:00:00 AM 36.4112 138.6788 239° Southwest  Level Estimated
Fri 04:01:00 AM 36.3717 138.5963 239° Southwest  Level Estimated
Fri 04:02:00 AM 36.3322 138.5139 239° Southwest  Level Estimated
Fri 04:03:00 AM 36.2926 138.4316 239° Southwest  Level Estimated
Fri 04:04:00 AM 36.2529 138.3494 239° Southwest  Level Estimated
Fri 04:05:00 AM 36.2132 138.2672 239° Southwest  Level Estimated
Fri 04:06:00 AM 36.1734 138.1851 239° Southwest  Level Estimated
Fri 04:07:00 AM 36.1335 138.1031 239° Southwest  Level Estimated
Fri 04:08:00 AM 36.0937 138.0212 239° Southwest  Level Estimated
Fri 04:09:00 AM 36.0537 137.9394 239° Southwest  Level Estimated
Fri 04:10:00 AM 36.0137 137.8577 239° Southwest  Level Estimated
Fri 04:11:00 AM 35.9736 137.7760 239° Southwest  Level Estimated
Fri 04:12:00 AM 35.9335 137.6944 239° Southwest  Level Estimated
Fri 04:13:00 AM 35.8933 137.6129 239° Southwest  Level Estimated
Fri 04:14:00 AM 35.8531 137.5315 239° Southwest  Level Estimated
Fri 04:15:00 AM 35.8128 137.4502 239° Southwest  Level Estimated
Fri 04:16:00 AM 35.7725 137.3690 239° Southwest  Level Estimated
Fri 04:17:00 AM 35.7321 137.2878 239° Southwest  Level Estimated
Fri 04:18:00 AM 35.6917 137.2067 238° Southwest  Level Estimated
Fri 04:19:00 AM 35.6511 137.1257 238° Southwest  Level Estimated
Fri 04:20:00 AM 35.6106 137.0448 238° Southwest  Level Estimated
Fri 04:21:00 AM 35.5700 136.9640 238° Southwest  Level Estimated
Fri 04:22:00 AM 35.5293 136.8832 238° Southwest  Level Estimated
Fri 04:23:00 AM 35.4886 136.8026 238° Southwest  Level Estimated
Fri 04:24:00 AM 35.4478 136.7220 238° Southwest  Level Estimated
Fri 04:25:00 AM 35.4070 136.6415 238° Southwest  Level Estimated
Fri 04:26:00 AM 35.3661 136.5610 238° Southwest  Level Estimated
Fri 04:27:00 AM 35.3252 136.4807 238° Southwest  Level Estimated
Fri 04:28:00 AM 35.2842 136.4004 238° Southwest  Level Estimated
Fri 04:29:00 AM 35.2432 136.3203 238° Southwest  Level Estimated
Fri 04:30:00 AM 35.2021 136.2401 238° Southwest  Level Estimated
Fri 04:31:00 AM 35.1610 136.1601 238° Southwest  Level Estimated
Fri 04:32:00 AM 35.1198 136.0802 238° Southwest  Level Estimated
Fri 04:33:00 AM 35.0785 136.0003 238° Southwest  Level Estimated
Fri 04:34:00 AM 35.0372 135.9205 238° Southwest  Level Estimated
Fri 04:35:00 AM 34.9959 135.8409 238° Southwest  Level Estimated
Fri 04:36:00 AM 34.9545 135.7612 238° Southwest  Level Estimated
Fri 04:37:00 AM 34.9130 135.6817 238° Southwest  Level Estimated
Fri 04:38:00 AM 34.8715 135.6022 238° Southwest  Level Estimated
Fri 04:39:00 AM 34.8299 135.5229 237° Southwest  Level Estimated
Fri 04:40:00 AM 34.7883 135.4436 237° Southwest  Level Estimated
Fri 04:41:00 AM 34.7855 135.4382 237° Southwest  Level Estimated
Fri 04:42:00 AM 34.7855 135.4382 141° Southeast  Level Estimated
Fri 04:43:00 AM 34.7855 135.4382 141° Southeast  Level Estimated
Fri 04:44:00 AM 34.7855 135.4382 141° Southeast  Level Estimated
Fri 04:45:00 AM 34.7855 135.4382 141° Southeast  Level Estimated
Fri 04:46:00 AM 34.7855 135.4382 141° Southeast  Level Estimated
Fri 04:47:00 AM 34.7855 135.4382 141° Southeast  Level Estimated
Fri 04:48:00 AM 34.7855 135.4382 141° Southeast  Level Estimated

Login

Don't have an account? Register now (free) for customized features, flight alerts, and more!